Time;durP1;ratioP1;P1;durP2;ratioP2;P2;SDS_P1;SDS_P2;PMS_P1;PMS_P2;Temp;Humidity;BMP_temperature;BMP_pressure;BME280_temperature;BME280_humidity;BME280_pressure;Samples;Min_cycle;Max_cycle;Signal;HPM_P1;HPM_P2
2022/01/29 00:03:01;;;;;;;8.77;3.47;;;;;;;-0.09;100.00;101663.50;5149540;57;1141126;-71
2022/01/29 00:08:07;;;;;;;11.77;3.53;;;;;;;-0.08;100.00;101663.06;5153919;57;1139336;-71
2022/01/29 00:13:12;;;;;;;8.70;2.57;;;;;;;-0.10;100.00;101664.83;5149492;57;1141307;-70
2022/01/29 00:18:18;;;;;;;9.63;3.77;;;;;;;-0.10;100.00;101671.33;5236574;56;1139232;-71
2022/01/29 00:23:24;;;;;;;16.97;4.10;;;;;;;-0.14;100.00;101667.91;5143044;57;1139235;-72
2022/01/29 00:28:33;;;;;;;15.57;4.10;;;;;;;-0.17;100.00;101658.88;5066561;58;1141189;-72
2022/01/29 00:33:43;;;;;;;8.55;3.37;;;;;;;-0.16;100.00;101656.70;5091068;57;1141573;-70
2022/01/29 00:38:45;;;;;;;8.70;3.70;;;;;;;-0.16;100.00;101661.04;5104327;57;1139204;-71
2022/01/29 00:43:51;;;;;;;11.83;4.47;;;;;;;-0.15;100.00;101659.69;5217596;56;1139008;-70
2022/01/29 00:48:57;;;;;;;6.67;2.77;;;;;;;-0.13;100.00;101658.37;5147143;57;1138979;-71
2022/01/29 00:54:02;;;;;;;11.07;3.00;;;;;;;-0.13;100.00;101634.97;5154715;57;1136937;-71
2022/01/29 00:59:08;;;;;;;7.13;3.00;;;;;;;-0.13;100.00;101640.16;5236484;56;1138986;-71
2022/01/29 01:04:14;;;;;;;9.70;2.80;;;;;;;-0.14;100.00;101638.00;5150085;57;1136949;-71
2022/01/29 01:09:20;;;;;;;9.57;2.57;;;;;;;-0.12;100.00;101631.05;5154597;57;1137420;-71
2022/01/29 01:14:26;;;;;;;12.80;3.30;;;;;;;-0.12;100.00;101615.88;5150255;57;1136900;-70
2022/01/29 01:19:31;;;;;;;16.37;2.80;;;;;;;-0.08;100.00;101611.06;5234812;56;1139037;-71
2022/01/29 01:24:37;;;;;;;14.00;4.40;;;;;;;-0.05;100.00;101588.91;5062168;58;1139292;-71
2022/01/29 01:29:43;;;;;;;10.40;3.30;;;;;;;-0.04;100.00;101580.23;5061964;58;1139312;-71
2022/01/29 01:34:52;;;;;;;14.57;3.37;;;;;;;-0.03;100.00;101584.11;5061848;58;1139287;-71
2022/01/29 01:39:57;;;;;;;13.20;3.05;;;;;;;-0.01;100.00;101577.14;5070626;58;1139026;-71
2022/01/29 01:45:02;;;;;;;10.37;2.53;;;;;;;0.00;100.00;101564.53;5070715;58;1139082;-71
2022/01/29 01:50:10;;;;;;;9.00;2.20;;;;;;;0.01;100.00;101567.98;5070342;58;1137032;-71
2022/01/29 01:55:26;;;;;;;17.43;2.83;;;;;;;0.02;100.00;101560.60;5070882;58;1134878;-71
2022/01/29 02:00:35;;;;;;;9.33;2.70;;;;;;;0.04;100.00;101544.97;5070561;58;1136985;-71
2022/01/29 02:05:41;;;;;;;7.97;2.73;;;;;;;0.07;100.00;101539.72;5070664;58;1134860;-71
2022/01/29 02:10:49;;;;;;;6.47;2.63;;;;;;;0.10;100.00;101534.03;5070724;58;1133074;-71
2022/01/29 02:15:55;;;;;;;9.83;2.77;;;;;;;0.12;100.00;101523.60;5090180;58;21935;-71
2022/01/29 02:21:03;;;;;;;9.33;3.17;;;;;;;0.16;100.00;101520.03;5092377;57;1139227;-71
2022/01/29 02:26:09;;;;;;;11.30;3.67;;;;;;;0.19;100.00;101503.94;5150122;57;1137097;-71
2022/01/29 02:31:15;;;;;;;12.07;3.97;;;;;;;0.22;100.00;101502.58;5236283;56;1139158;-71
2022/01/29 02:36:21;;;;;;;11.83;4.07;;;;;;;0.24;100.00;101498.20;5149846;57;1138959;-71
2022/01/29 02:41:28;;;;;;;20.73;5.13;;;;;;;0.21;100.00;101496.96;5149771;57;1139026;-71
2022/01/29 02:51:59;;;;;;;13.77;4.50;;;;;;;0.10;100.00;101479.86;5150029;57;1138967;-71
2022/01/29 02:57:05;;;;;;;13.33;3.93;;;;;;;0.06;100.00;101466.05;5149682;57;1138997;-71
2022/01/29 03:02:11;;;;;;;19.73;4.07;;;;;;;0.05;100.00;101454.37;5149672;57;1139073;-71
2022/01/29 03:07:17;;;;;;;16.70;4.33;;;;;;;0.04;100.00;101441.81;5149660;57;1139088;-71
2022/01/29 03:12:23;;;;;;;7.73;2.37;;;;;;;-0.01;100.00;101434.13;5149783;57;1139088;-71
2022/01/29 03:17:29;;;;;;;11.57;3.87;;;;;;;-0.04;100.00;101439.38;5149590;57;1139000;-70
2022/01/29 03:22:35;;;;;;;21.67;5.07;;;;;;;-0.04;100.00;101435.47;5097000;57;1141227;-71
2022/01/29 03:27:40;;;;;;;14.03;3.77;;;;;;;-0.03;100.00;101431.98;5070323;58;1141115;-71
2022/01/29 03:32:46;;;;;;;16.90;4.00;;;;;;;-0.01;100.00;101431.52;5149753;57;1141302;-71
2022/01/29 03:37:53;;;;;;;14.80;3.43;;;;;;;0.04;100.00;101414.50;5113316;57;1141120;-71
2022/01/29 03:43:09;;;;;;;12.10;4.17;;;;;;;0.06;100.00;101397.57;5149608;57;1139108;-71
2022/01/29 03:48:12;;;;;;;21.70;3.95;;;;;;;0.07;100.00;101383.23;5149841;57;1138965;-71
2022/01/29 03:53:18;;;;;;;12.77;3.57;;;;;;;0.07;100.00;101381.94;5150009;57;1138989;-71
2022/01/29 03:58:24;;;;;;;18.43;3.97;;;;;;;0.08;100.00;101386.25;5150464;57;1138970;-71
2022/01/29 04:03:29;;;;;;;13.50;2.93;;;;;;;0.09;100.00;101357.20;5150295;57;1139265;-71
2022/01/29 04:08:40;;;;;;;25.97;4.65;;;;;;;0.14;100.00;101354.93;5150232;57;1139216;-71
2022/01/29 04:13:46;;;;;;;9.65;2.60;;;;;;;0.16;100.00;101348.36;5150245;57;1139006;-71
2022/01/29 04:18:51;;;;;;;12.63;2.23;;;;;;;0.17;100.00;101344.43;5150264;57;1136953;-71
2022/01/29 04:23:57;;;;;;;17.27;3.10;;;;;;;0.23;100.00;101336.95;5110181;57;1139031;-71
2022/01/29 04:29:08;;;;;;;17.30;3.30;;;;;;;0.25;100.00;101316.97;5063302;57;1139107;-71
2022/01/29 04:34:13;;;;;;;14.38;2.95;;;;;;;0.28;100.00;101323.41;5068062;57;1139428;-70
2022/01/29 04:39:20;;;;;;;23.40;4.10;;;;;;;0.32;100.00;101313.32;5067830;57;1139040;-71
2022/01/29 04:44:26;;;;;;;18.80;3.20;;;;;;;0.38;100.00;101307.13;5063465;57;1139128;-70
2022/01/29 04:49:31;;;;;;;21.97;4.10;;;;;;;0.45;100.00;101295.70;5067779;57;1139021;-71
2022/01/29 04:54:37;;;;;;;26.03;4.40;;;;;;;0.49;100.00;101290.37;5068013;57;1139021;-71
2022/01/29 04:59:43;;;;;;;21.47;3.57;;;;;;;0.52;100.00;101274.69;5063390;57;1139055;-71
2022/01/29 05:04:48;;;;;;;19.23;3.70;;;;;;;0.57;100.00;101264.17;5067578;57;1139000;-71
2022/01/29 05:09:54;;;;;;;22.00;4.10;;;;;;;0.60;100.00;101248.48;5067801;57;1137202;-71
2022/01/29 05:15:17;;;;;;;20.63;3.80;;;;;;;0.61;100.00;101251.02;5063440;57;1136993;-71
2022/01/29 05:31:04;;;;;;;16.50;3.52;;;;;;;0.68;100.00;101211.39;5066742;58;1137044;-71
2022/01/29 05:36:10;;;;;;;16.30;4.07;;;;;;;0.71;100.00;101204.81;5066505;58;1137091;-71
2022/01/29 05:41:16;;;;;;;23.73;4.80;;;;;;;0.73;100.00;101203.02;5150202;57;1136903;-71
2022/01/29 05:46:22;;;;;;;13.53;3.10;;;;;;;0.74;100.00;101198.22;5149993;57;1136909;-71
2022/01/29 05:51:30;;;;;;;19.67;3.13;;;;;;;0.79;100.00;101188.52;5149809;57;1136923;-71
2022/01/29 05:56:36;;;;;;;27.40;4.47;;;;;;;0.81;100.00;101183.27;5113786;57;1135272;-71
2022/01/29 06:01:41;;;;;;;26.53;5.13;;;;;;;0.84;100.00;101187.11;5150080;57;1138920;-73
2022/01/29 06:06:48;;;;;;;25.17;4.20;;;;;;;0.88;100.00;101167.45;5150010;57;1138993;-71
2022/01/29 06:11:54;;;;;;;22.23;4.33;;;;;;;0.90;100.00;101145.28;5070821;58;1139008;-71
2022/01/29 06:16:59;;;;;;;17.00;3.87;;;;;;;0.95;100.00;101141.64;5070739;58;1138936;-71
2022/01/29 06:22:10;;;;;;;24.80;4.10;;;;;;;0.99;100.00;101141.97;5144514;57;1138978;-71
2022/01/29 06:27:13;;;;;;;27.60;5.73;;;;;;;0.99;100.00;101149.78;5226843;56;1138944;-71
2022/01/29 06:32:19;;;;;;;22.40;3.70;;;;;;;0.98;100.00;101132.89;5141013;57;1138962;-71
2022/01/29 06:37:25;;;;;;;21.17;4.47;;;;;;;0.92;100.00;101113.07;5142958;57;1138976;-71
2022/01/29 06:42:31;;;;;;;23.37;5.90;;;;;;;0.89;100.00;101105.82;5109908;57;1139045;-71
2022/01/29 06:47:37;;;;;;;29.53;4.03;;;;;;;0.83;100.00;101089.05;5137977;57;1139234;-72
2022/01/29 06:52:43;;;;;;;26.00;5.77;;;;;;;0.80;100.00;101082.18;5199295;56;1139302;-72
2022/01/29 06:57:49;;;;;;;71.27;34.90;;;;;;;0.74;100.00;101090.19;5070552;58;1139004;-73
2022/01/29 07:02:54;;;;;;;87.60;53.30;;;;;;;0.69;100.00;101079.89;5098177;57;1141165;-72
2022/01/29 07:08:00;;;;;;;61.73;30.43;;;;;;;0.67;100.00;101076.47;5110681;57;1141012;-72
2022/01/29 07:13:08;;;;;;;55.27;18.97;;;;;;;0.66;100.00;101058.29;5096357;57;1141014;-72
2022/01/29 07:18:14;;;;;;;42.70;20.43;;;;;;;0.66;100.00;101058.29;5089733;56;1141004;-71
2022/01/29 07:23:19;;;;;;;38.23;15.33;;;;;;;0.62;100.00;101051.01;5078643;57;1141117;-71
2022/01/29 07:28:25;;;;;;;44.17;14.47;;;;;;;0.63;100.00;101042.75;5103634;57;1141026;-71
2022/01/29 07:33:31;;;;;;;26.00;7.55;;;;;;;0.62;100.00;101024.13;5121673;57;1141073;-71
2022/01/29 07:38:37;;;;;;;21.70;5.97;;;;;;;0.61;100.00;101016.77;5199018;56;1139023;-71
2022/01/29 07:43:42;;;;;;;32.33;8.43;;;;;;;0.60;100.00;101008.59;5172652;57;1138959;-72
2022/01/29 07:48:48;;;;;;;37.97;8.67;;;;;;;0.61;100.00;101008.95;5153732;56;1139364;-71
2022/01/29 07:53:54;;;;;;;37.70;8.93;;;;;;;0.63;100.00;100993.30;5130071;57;1138976;-71
2022/01/29 07:58:59;;;;;;;42.63;16.27;;;;;;;0.64;100.00;100976.79;5116364;57;1138931;-72
2022/01/29 08:04:05;;;;;;;58.33;15.63;;;;;;;0.65;100.00;100972.84;5120460;57;1140962;-71
2022/01/29 08:09:11;;;;;;;47.83;16.53;;;;;;;0.66;100.00;100969.34;5120744;57;1141183;-72
2022/01/29 08:14:17;;;;;;;37.17;9.97;;;;;;;0.69;100.00;100948.88;5120947;57;1141063;-71
2022/01/29 08:19:22;;;;;;;56.47;20.93;;;;;;;0.71;100.00;100944.48;5120828;57;1139011;-71
2022/01/29 08:24:28;;;;;;;21.75;7.08;;;;;;;0.67;100.00;100930.70;5140460;57;1141047;-71
2022/01/29 08:29:34;;;;;;;21.00;7.17;;;;;;;0.69;100.00;100916.34;5183030;56;1139044;-71
2022/01/29 08:34:42;;;;;;;56.07;23.07;;;;;;;0.70;100.00;100896.78;5106739;57;1139029;-70
2022/01/29 08:39:48;;;;;;;42.57;17.43;;;;;;;0.73;100.00;100887.17;5070571;58;1141094;-71
2022/01/29 08:44:53;;;;;;;55.70;20.27;;;;;;;0.71;100.00;100878.11;5101455;57;1141542;-71
2022/01/29 08:50:00;;;;;;;23.73;9.53;;;;;;;0.74;100.00;100864.15;5127210;57;1141115;-71
2022/01/29 08:55:09;;;;;;;30.50;17.97;;;;;;;0.79;100.00;100858.33;5149786;57;1138947;-71
2022/01/29 09:00:16;;;;;;;23.60;9.33;;;;;;;0.81;100.00;100853.92;5154588;57;1141327;-72
2022/01/29 09:05:22;;;;;;;38.50;15.83;;;;;;;0.79;100.00;100853.12;5154604;57;1139065;-71
2022/01/29 09:10:28;;;;;;;33.83;15.70;;;;;;;0.78;100.00;100831.89;5154415;57;1141150;-71
2022/01/29 09:15:34;;;;;;;39.37;15.60;;;;;;;0.80;100.00;100824.88;5151918;57;1141179;-72
2022/01/29 09:20:40;;;;;;;23.67;10.63;;;;;;;0.82;100.00;100798.35;5163538;56;1141334;-71
2022/01/29 09:25:46;;;;;;;32.83;13.47;;;;;;;0.82;100.00;100798.35;5103529;57;1139167;-71
2022/01/29 09:30:53;;;;;;;20.30;9.43;;;;;;;0.82;100.00;100786.19;5145610;57;1138984;-71
2022/01/29 09:35:59;;;;;;;22.13;11.17;;;;;;;0.80;100.00;100789.73;5083412;57;1136949;-72
2022/01/29 09:41:06;;;;;;;22.77;9.97;;;;;;;0.76;100.00;100779.05;5067923;58;1139271;-71
2022/01/29 09:46:12;;;;;;;19.80;8.10;;;;;;;0.82;100.00;100773.17;5068124;58;1136946;-72
2022/01/29 09:51:18;;;;;;;27.03;9.40;;;;;;;0.82;100.00;100768.41;5066242;58;1136971;-72
2022/01/29 09:56:25;;;;;;;11.47;6.47;;;;;;;0.84;100.00;100747.09;5067582;58;1137015;-71
2022/01/29 10:01:31;;;;;;;11.30;5.77;;;;;;;0.80;100.00;100744.17;5103031;57;1137188;-72
2022/01/29 10:06:37;;;;;;;9.97;5.93;;;;;;;0.75;100.00;100725.28;5145537;57;1136956;-72
2022/01/29 10:11:44;;;;;;;12.78;6.53;;;;;;;0.74;100.00;100711.86;5121488;57;1134881;-71
2022/01/29 10:16:52;;;;;;;17.70;9.35;;;;;;;0.74;100.00;100698.40;5070624;57;1137188;-71
2022/01/29 10:21:57;;;;;;;10.30;5.87;;;;;;;0.73;100.00;100685.44;5109735;57;1136919;-72
2022/01/29 10:27:06;;;;;;;7.87;5.13;;;;;;;0.72;100.00;100673.32;5141367;57;1137248;-71
2022/01/29 10:32:14;;;;;;;6.53;5.27;;;;;;;0.69;100.00;100663.86;5188420;56;1134835;-71
2022/01/29 10:37:23;;;;;;;14.30;6.63;;;;;;;0.68;100.00;100633.53;5043133;58;1134997;-72
2022/01/29 10:42:33;;;;;;;9.70;6.20;;;;;;;0.67;100.00;100618.36;5129022;57;1134891;-72
2022/01/29 10:47:59;;;;;;;20.62;11.97;;;;;;;0.66;100.00;100595.84;5089444;57;1136771;-72
2022/01/29 10:53:27;;;;;;;18.83;12.70;;;;;;;0.64;100.00;100595.49;5129784;57;1141061;-72
2022/01/29 10:58:42;;;;;;;9.43;6.70;;;;;;;0.65;100.00;100572.02;5146870;57;1141109;-71
2022/01/29 11:03:52;;;;;;;18.80;10.20;;;;;;;0.65;100.00;100554.25;5100265;57;1137229;-71
2022/01/29 11:08:56;;;;;;;25.70;14.07;;;;;;;0.65;100.00;100557.70;5121519;57;1141236;-71
2022/01/29 11:14:03;;;;;;;47.23;22.33;;;;;;;0.68;100.00;100543.73;5147526;56;1140998;-73
2022/01/29 11:19:09;;;;;;;16.57;10.20;;;;;;;0.71;100.00;100535.81;5142024;56;1141106;-71
2022/01/29 11:24:18;;;;;;;19.77;10.83;;;;;;;0.74;100.00;100524.00;5105776;57;1141159;-72
2022/01/29 11:29:36;;;;;;;13.40;9.73;;;;;;;0.73;100.00;100511.89;5081610;57;1141386;-71
2022/01/29 11:35:09;;;;;;;24.93;12.73;;;;;;;0.71;100.00;100495.47;5084359;57;1139052;-77
2022/01/29 11:40:29;;;;;;;19.70;10.57;;;;;;;0.75;100.00;100480.14;5074394;57;1141078;-80
2022/01/29 11:45:49;;;;;;;14.57;8.73;;;;;;;0.78;100.00;100469.59;5089929;57;1141175;-79
2022/01/29 11:50:57;;;;;;;12.07;7.70;;;;;;;0.79;100.00;100437.91;5098059;57;1138997;-80
2022/01/29 11:56:03;;;;;;;12.90;6.80;;;;;;;0.81;100.00;100425.22;5103142;57;1138975;-80
2022/01/29 12:01:10;;;;;;;9.70;6.90;;;;;;;0.81;100.00;100414.81;5090106;57;1139054;-81
2022/01/29 12:11:21;;;;;;;22.50;11.37;;;;;;;0.90;100.00;100373.27;5083632;57;1137213;-82
2022/01/29 12:16:59;;;;;;;14.53;8.27;;;;;;;0.96;100.00;100361.28;5105158;57;1139237;-80
2022/01/29 12:22:17;;;;;;;40.90;17.43;;;;;;;1.00;100.00;100344.63;5086740;57;1136902;-80
2022/01/29 12:27:24;;;;;;;46.07;19.67;;;;;;;1.03;100.00;100312.81;5088689;57;1139364;-80
2022/01/29 12:32:30;;;;;;;41.07;20.47;;;;;;;1.12;100.00;100311.56;5077356;57;1139133;-77
2022/01/29 12:37:35;;;;;;;23.93;9.30;;;;;;;1.16;100.00;100291.00;5073051;57;1139211;-80
2022/01/29 12:42:54;;;;;;;40.27;12.80;;;;;;;1.22;100.00;100254.25;5087645;57;1137102;-80
2022/01/29 12:47:52;;;;;;;19.73;8.47;;;;;;;1.31;100.00;100235.62;5103633;57;1138979;-80
2022/01/29 12:53:17;;;;;;;25.00;9.63;;;;;;;1.37;100.00;100205.86;5038992;57;1134966;-78
2022/01/29 12:58:34;;;;;;;48.00;13.10;;;;;;;1.40;100.00;100201.79;5068787;57;1138910;-80
2022/01/29 13:03:41;;;;;;;31.63;12.47;;;;;;;1.46;100.00;100205.44;5064093;58;1141187;-80
2022/01/29 13:08:46;;;;;;;38.03;14.53;;;;;;;1.52;100.00;100167.84;5122051;57;1141066;-79
2022/01/29 13:13:53;;;;;;;13.07;6.77;;;;;;;1.60;100.00;100172.23;5127902;57;1141024;-79
2022/01/29 13:18:59;;;;;;;17.17;8.93;;;;;;;1.64;100.00;100155.53;5139349;56;1139099;-80
2022/01/29 13:24:29;;;;;;;23.47;11.47;;;;;;;1.69;100.00;100143.11;5064056;57;1139385;-79
2022/01/29 13:29:51;;;;;;;23.77;14.67;;;;;;;1.76;100.00;100113.24;5136241;57;1140933;-81
2022/01/29 13:34:57;;;;;;;15.67;9.00;;;;;;;1.83;100.00;100117.72;5134794;57;1141005;-80
2022/01/29 13:40:07;;;;;;;23.10;10.60;;;;;;;1.92;100.00;100093.79;5140860;57;1139056;-80
2022/01/29 13:45:19;;;;;;;24.30;9.13;;;;;;;2.00;100.00;100082.05;5127108;57;1141310;-79
2022/01/29 13:50:29;;;;;;;8.17;5.50;;;;;;;2.08;100.00;100077.31;5135612;57;1139019;-80
2022/01/29 13:55:39;;;;;;;18.87;7.30;;;;;;;2.17;100.00;100069.94;5117981;57;1136965;-81
2022/01/29 14:01:04;;;;;;;14.93;7.67;;;;;;;2.22;100.00;100072.70;5120220;57;1139266;-80
2022/01/29 14:06:53;;;;;;;17.03;8.40;;;;;;;2.30;100.00;100080.13;5172662;56;1139493;-79
2022/01/29 14:12:05;;;;;;;28.57;9.78;;;;;;;2.36;100.00;100049.36;5064621;57;1139209;-80
2022/01/29 14:17:16;;;;;;;40.43;11.43;;;;;;;2.43;100.00;100032.94;5085212;57;1137004;-79
2022/01/29 14:22:24;;;;;;;24.83;10.17;;;;;;;2.51;100.00;100019.02;5066812;57;1139319;-79
2022/01/29 14:27:31;;;;;;;42.07;16.23;;;;;;;2.60;100.00;100007.27;5135620;57;1139256;-79
2022/01/29 14:32:39;;;;;;;46.60;20.47;;;;;;;2.69;100.00;100011.98;5137278;56;1138411;-77
2022/01/29 14:37:44;;;;;;;22.00;9.93;;;;;;;2.76;100.00;99988.06;5173900;56;1139036;-79
2022/01/29 14:42:50;;;;;;;18.53;9.50;;;;;;;2.84;100.00;99965.46;5132360;57;1134889;-81
2022/01/29 14:47:57;;;;;;;13.47;7.47;;;;;;;2.91;100.00;99935.91;5146256;57;1134939;-79
2022/01/29 14:53:03;;;;;;;24.13;14.13;;;;;;;2.97;100.00;99908.16;5147432;57;1134843;-78
2022/01/29 14:58:09;;;;;;;32.97;16.03;;;;;;;3.05;100.00;99883.77;5149548;57;1136964;-77
2022/01/29 15:03:15;;;;;;;20.57;12.43;;;;;;;3.13;100.00;99884.16;5148945;57;1136969;-77
2022/01/29 15:08:21;;;;;;;16.80;7.77;;;;;;;3.21;100.00;99873.29;5149235;57;1137009;-77
2022/01/29 15:13:27;;;;;;;16.13;9.13;;;;;;;3.29;100.00;99857.53;5146686;57;1132735;-77
2022/01/29 15:18:32;;;;;;;11.80;7.90;;;;;;;3.39;100.00;99850.82;5148283;57;1133064;-76
2022/01/29 15:23:38;;;;;;;17.17;10.83;;;;;;;3.47;100.00;99845.16;5071697;57;1136853;-78
2022/01/29 15:28:44;;;;;;;7.65;5.10;;;;;;;3.56;100.00;99833.30;5044494;58;1139209;-75
2022/01/29 15:33:52;;;;;;;21.00;10.50;;;;;;;3.63;100.00;99814.55;5132586;57;1134978;-74
2022/01/29 15:38:58;;;;;;;18.97;10.07;;;;;;;3.71;100.00;99797.92;5140773;57;1139021;-79
2022/01/29 15:44:03;;;;;;;26.87;16.10;;;;;;;3.78;100.00;99761.32;5099796;57;1139170;-78
2022/01/29 15:49:09;;;;;;;27.45;13.93;;;;;;;3.86;100.00;99756.44;5130769;57;1139663;-76
2022/01/29 15:54:15;;;;;;;29.60;10.48;;;;;;;3.96;100.00;99741.50;5149853;57;1138952;-71
2022/01/29 15:59:21;;;;;;;39.38;18.98;;;;;;;4.04;100.00;99734.83;5153940;57;1139028;-76
2022/01/29 16:04:28;;;;;;;16.47;8.57;;;;;;;4.10;100.00;99731.84;5149708;57;1139392;-76
2022/01/29 16:09:34;;;;;;;15.93;9.63;;;;;;;4.22;100.00;99720.58;5152361;57;1136923;-76
2022/01/29 16:14:47;;;;;;;15.33;7.20;;;;;;;4.32;100.00;99712.97;5149700;57;1136929;-75
2022/01/29 16:19:48;;;;;;;16.00;9.93;;;;;;;4.40;100.00;99704.16;5147186;57;1137164;-75
2022/01/29 16:24:55;;;;;;;14.10;9.07;;;;;;;4.50;100.00;99688.68;5070553;57;1136940;-84
2022/01/29 16:30:00;;;;;;;31.00;14.83;;;;;;;4.58;100.00;99675.44;5098779;57;1136918;-80
2022/01/29 16:35:07;;;;;;;76.40;36.67;;;;;;;4.67;100.00;99662.69;5133718;57;1139115;-78
2022/01/29 16:40:13;;;;;;;16.93;9.83;;;;;;;4.73;100.00;99643.48;5127646;57;1139244;-76
2022/01/29 16:45:21;;;;;;;31.77;11.07;;;;;;;4.78;100.00;99637.44;5094883;57;1136871;-76
2022/01/29 16:50:28;;;;;;;24.30;13.33;;;;;;;4.86;100.00;99622.52;5025652;58;1139004;-75
2022/01/29 16:55:35;;;;;;;19.77;9.97;;;;;;;4.92;100.00;99615.53;4981938;58;1139052;-77
2022/01/29 17:00:41;;;;;;;43.57;17.23;;;;;;;4.95;100.00;99594.38;4954255;59;1136900;-74
2022/01/29 17:05:47;;;;;;;86.27;42.23;;;;;;;5.01;100.00;99583.95;4976360;58;1139214;-77
2022/01/29 17:10:54;;;;;;;89.87;44.97;;;;;;;5.04;100.00;99566.20;4950711;59;1139306;-75
2022/01/29 17:15:59;;;;;;;109.07;36.23;;;;;;;5.11;100.00;99588.43;5055161;57;1138959;-84
2022/01/29 17:21:05;;;;;;;73.67;32.67;;;;;;;5.12;100.00;99557.34;5067739;57;1141224;-70
2022/01/29 17:26:11;;;;;;;24.87;10.00;;;;;;;5.15;100.00;99536.64;4970338;58;1139286;-73
2022/01/29 17:31:17;;;;;;;16.30;8.60;;;;;;;5.14;100.00;99514.84;4929588;58;1139441;-73
2022/01/29 17:36:23;;;;;;;19.10;10.17;;;;;;;5.17;100.00;99490.20;5047549;57;1137109;-81
2022/01/29 17:41:28;;;;;;;11.17;7.83;;;;;;;5.20;100.00;99482.09;5071676;57;1139183;-72
2022/01/29 17:46:34;;;;;;;7.70;5.33;;;;;;;5.22;100.00;99452.67;5082916;57;1136994;-71
2022/01/29 17:51:39;;;;;;;8.47;5.23;;;;;;;5.26;100.00;99439.24;5072558;57;1134781;-75
2022/01/29 17:56:45;;;;;;;8.23;5.53;;;;;;;5.29;100.00;99435.56;5099767;57;1134966;-75
2022/01/29 18:01:52;;;;;;;20.08;12.07;;;;;;;5.31;100.00;99414.02;5089592;57;1134851;-79
2022/01/29 18:06:58;;;;;;;5.53;4.33;;;;;;;5.33;100.00;99405.56;5146791;57;1139044;-76
2022/01/29 18:12:07;;;;;;;19.27;9.58;;;;;;;5.36;100.00;99387.44;5067155;57;1134833;-72
2022/01/29 18:17:16;;;;;;;11.83;7.20;;;;;;;5.37;100.00;99367.66;5067101;57;1137469;-78
2022/01/29 18:22:22;;;;;;;8.00;5.97;;;;;;;5.39;100.00;99364.92;5059771;57;1137246;-78
2022/01/29 18:27:29;;;;;;;4.63;3.30;;;;;;;5.40;100.00;99354.33;5031923;57;1134831;-77
2022/01/29 18:32:35;;;;;;;9.60;3.93;;;;;;;5.44;100.00;99335.27;5119428;57;1132755;-76
2022/01/29 18:37:42;;;;;;;6.10;3.70;;;;;;;5.49;100.00;99326.59;5126517;57;1132825;-77
2022/01/29 18:42:49;;;;;;;7.07;4.63;;;;;;;5.55;100.00;99296.79;5113008;57;1132805;-82
2022/01/29 18:47:56;;;;;;;3.40;3.10;;;;;;;5.60;100.00;99284.64;5063032;58;1132946;-80
2022/01/29 18:53:02;;;;;;;5.73;3.37;;;;;;;5.68;100.00;99282.25;5063705;58;1132820;-77
2022/01/29 18:58:09;;;;;;;9.80;5.25;;;;;;;5.68;100.00;99282.25;5063095;58;1132807;-78
2022/01/29 19:03:15;;;;;;;5.22;3.60;;;;;;;5.75;100.00;99278.22;5063214;57;1132780;-78
2022/01/29 19:08:21;;;;;;;3.27;2.97;;;;;;;5.81;100.00;99263.77;5063041;58;1132809;-74
2022/01/29 19:13:27;;;;;;;2.83;2.53;;;;;;;5.89;100.00;99238.65;5063068;58;1132829;-75
2022/01/29 19:18:33;;;;;;;6.67;3.07;;;;;;;5.94;100.00;99225.17;5062545;58;1132801;-85
2022/01/29 19:23:41;;;;;;;2.57;2.37;;;;;;;5.98;100.00;99224.79;5133395;57;1132921;-80
2022/01/29 19:28:47;;;;;;;3.60;3.30;;;;;;;6.04;100.00;99206.90;5051999;57;1132857;-83
2022/01/29 19:33:52;;;;;;;3.33;2.90;;;;;;;6.07;100.00;99188.29;4997727;57;1132812;-83
2022/01/29 19:38:59;;;;;;;271.17;161.83;;;;;;;6.10;100.00;99166.58;5089576;57;1132773;-74
2022/01/29 19:44:04;;;;;;;100.47;63.28;;;;;;;6.20;100.00;99145.65;5240119;56;1141335;-75
2022/01/29 19:49:10;;;;;;;97.85;61.25;;;;;;;6.26;100.00;99125.47;5240676;56;1138857;-79
2022/01/29 19:54:15;;;;;;;93.33;20.77;;;;;;;6.30;100.00;99129.02;5240531;56;1136962;-76
2022/01/29 19:59:21;;;;;;;28.63;11.67;;;;;;;6.34;100.00;99104.17;5258329;55;1134775;-80
2022/01/29 20:04:29;;;;;;;5.90;3.73;;;;;;;6.39;100.00;99119.56;5279612;55;1134867;-78
2022/01/29 20:09:34;;;;;;;16.73;7.43;;;;;;;6.47;100.00;99113.66;5274810;55;1134725;-75
2022/01/29 20:14:40;;;;;;;24.77;6.33;;;;;;;6.54;100.00;99115.66;5282212;55;1137435;-76
2022/01/29 20:19:46;;;;;;;15.87;6.27;;;;;;;6.54;100.00;99095.96;5314728;55;1136821;-75
2022/01/29 20:24:52;;;;;;;14.07;5.00;;;;;;;6.52;100.00;99068.16;5289012;55;1137030;-81
2022/01/29 20:29:58;;;;;;;17.73;8.37;;;;;;;6.54;100.00;99065.75;5320484;55;1137010;-75
2022/01/29 20:35:09;;;;;;;11.13;4.83;;;;;;;6.56;100.00;99061.69;5315739;55;1137028;-74
2022/01/29 20:40:15;;;;;;;7.50;3.50;;;;;;;6.58;100.00;99046.61;5277501;55;1137156;-75
2022/01/29 20:45:21;;;;;;;7.43;4.13;;;;;;;6.57;100.00;99042.34;5194004;56;1134890;-76
2022/01/29 20:50:27;;;;;;;15.33;5.13;;;;;;;6.61;100.00;99027.97;5167997;56;1134742;-76
2022/01/29 20:55:33;;;;;;;8.73;3.83;;;;;;;6.66;100.00;99020.05;5178714;56;1136899;-75
2022/01/29 21:00:39;;;;;;;12.03;4.83;;;;;;;6.68;100.00;98989.72;5184641;56;1135082;-76
2022/01/29 21:05:45;;;;;;;14.63;5.33;;;;;;;6.79;100.00;98990.09;5217576;56;1136907;-75
2022/01/29 21:10:51;;;;;;;2.27;1.80;;;;;;;6.87;100.00;98991.11;5226689;56;1136781;-77
2022/01/29 21:15:57;;;;;;;13.73;3.30;;;;;;;6.97;100.00;98982.77;5218008;56;1134809;-79
2022/01/29 21:21:03;;;;;;;9.77;3.40;;;;;;;7.05;100.00;98970.25;5237765;56;1137112;-80
2022/01/29 21:26:09;;;;;;;8.80;2.50;;;;;;;7.12;100.00;98963.51;5231355;56;1134931;-72
2022/01/29 21:31:14;;;;;;;4.40;2.05;;;;;;;7.14;100.00;98976.52;5205827;56;1136838;-79
2022/01/29 21:36:21;;;;;;;9.33;3.87;;;;;;;7.17;100.00;98956.54;5144881;57;1137014;-76
2022/01/29 21:41:32;;;;;;;3.23;2.20;;;;;;;7.20;100.00;98949.19;5126170;57;1134814;-72
2022/01/29 21:46:34;;;;;;;22.23;6.80;;;;;;;7.17;100.00;98970.52;5120336;57;1134726;-76
2022/01/29 21:51:40;;;;;;;4.33;1.30;;;;;;;7.19;100.00;98986.13;5121389;57;1137107;-75
2022/01/29 21:56:48;;;;;;;14.20;2.50;;;;;;;7.17;100.00;98990.23;5121359;57;1135134;-70
2022/01/29 22:01:55;;;;;;;10.33;4.07;;;;;;;7.15;100.00;98955.36;5121254;57;1136828;-80
2022/01/29 22:07:00;;;;;;;5.93;1.47;;;;;;;7.15;100.00;98982.13;5121196;57;1136954;-82
2022/01/29 22:12:07;;;;;;;7.33;1.00;;;;;;;7.05;100.00;99028.09;5121213;57;1135007;-75
2022/01/29 22:17:13;;;;;;;2.87;1.27;;;;;;;6.71;100.00;99030.18;5121206;57;1135047;-76
2022/01/29 22:22:18;;;;;;;4.43;1.10;;;;;;;6.57;100.00;99058.91;5170126;56;1135002;-74
2022/01/29 22:27:24;;;;;;;15.87;4.90;;;;;;;6.35;100.00;99053.80;5206594;56;1134818;-73
2022/01/29 22:32:30;;;;;;;17.57;2.43;;;;;;;6.09;100.00;99040.23;5206511;56;1136886;-73
2022/01/29 22:37:36;;;;;;;10.67;2.30;;;;;;;5.96;100.00;99060.55;5206346;56;1136907;-77
2022/01/29 22:42:42;;;;;;;15.37;3.77;;;;;;;5.92;100.00;99074.41;5217538;56;1137177;-79
2022/01/29 23:01:24;;;;;;;14.40;2.93;;;;;;;5.99;100.00;99108.37;5218829;56;47659;-69
2022/01/29 23:06:30;;;;;;;9.87;2.00;;;;;;;5.82;98.07;99098.37;4883592;59;1133088;-76
2022/01/29 23:11:41;;;;;;;18.67;4.10;;;;;;;5.76;95.24;99115.09;4917065;58;1132678;-74
2022/01/29 23:16:54;;;;;;;15.77;3.17;;;;;;;5.80;91.99;99100.78;5058557;58;1135183;-73
